Time;durP1;ratioP1;P1;durP2;ratioP2;P2;SDS_P1;SDS_P2;PMS_P1;PMS_P2;Temp;Humidity;BMP_temperature;BMP_pressure;BME280_temperature;BME280_humidity;BME280_pressure;Samples;Min_cycle;Max_cycle;Signal;HPM_P1;HPM_P2
2021/07/15 00:00:30;;;;;;;5.23;4.73;;;15.30;99.90;;;;;;5017024;28;20464;-73
2021/07/15 00:03:01;;;;;;;4.53;4.13;;;15.20;99.90;;;;;;5012050;28;22124;-73
2021/07/15 00:05:31;;;;;;;5.87;4.73;;;15.10;99.90;;;;;;4996532;28;20465;-73
2021/07/15 00:07:58;;;;;;;7.23;5.83;;;15.20;99.90;;;;;;4998431;28;20451;-73
2021/07/15 09:06:19;;;;;;;1.77;1.67;;;22.50;99.90;;;;;;5103467;27;20932;-63
2021/07/15 09:08:48;;;;;;;1.70;1.60;;;23.10;99.90;;;;;;5113810;28;20448;-63
2021/07/15 09:11:15;;;;;;;1.83;1.60;;;23.10;99.90;;;;;;5114182;28;20451;-63
2021/07/15 09:13:42;;;;;;;2.03;1.93;;;23.20;99.90;;;;;;5114867;28;20460;-63
2021/07/15 09:16:12;;;;;;;1.70;1.60;;;23.20;99.90;;;;;;5113964;28;20827;-62
2021/07/15 09:18:56;;;;;;;1.73;1.63;;;23.40;99.90;;;;;;5115156;28;20888;-62
2021/07/15 09:21:27;;;;;;;1.73;1.63;;;23.30;99.90;;;;;;5114574;28;20504;-62
2021/07/15 09:23:55;;;;;;;1.60;1.50;;;23.50;99.90;;;;;;5114958;28;20479;-62
2021/07/15 09:26:25;;;;;;;2.27;2.07;;;23.70;99.90;;;;;;5114115;28;20463;-63
2021/07/15 09:28:52;;;;;;;1.90;1.80;;;24.00;99.90;;;;;;5114414;28;20767;-63
2021/07/15 09:31:24;;;;;;;1.70;1.60;;;24.50;99.90;;;;;;5114456;28;20951;-63
2021/07/15 09:33:51;;;;;;;2.10;2.00;;;24.90;99.90;;;;;;5114667;28;20456;-63
2021/07/15 09:36:24;;;;;;;1.90;1.80;;;25.00;99.90;;;;;;5113822;28;20506;-63
2021/07/15 09:38:55;;;;;;;2.37;1.80;;;24.90;99.90;;;;;;5114846;28;20467;-62
2021/07/15 09:41:25;;;;;;;1.70;1.60;;;24.90;99.90;;;;;;5113729;28;20896;-62
2021/07/15 09:43:52;;;;;;;1.80;1.70;;;25.30;98.50;;;;;;5109386;28;20502;-62
2021/07/15 09:46:23;;;;;;;2.47;2.27;;;25.90;97.40;;;;;;5093184;28;20518;-62
2021/07/15 09:49:06;;;;;;;2.53;2.33;;;26.30;99.90;;;;;;5073418;28;20735;-62
2021/07/15 10:29:06;;;;;;;2.70;2.50;;;23.60;99.90;;;;;;3325060;23;20493;-62
2021/07/15 10:31:34;;;;;;;2.27;2.17;;;23.60;99.90;;;;;;5000951;28;20461;-62
2021/07/15 10:34:01;;;;;;;2.53;2.40;;;23.60;99.90;;;;;;5000130;28;20464;-62
2021/07/15 10:36:28;;;;;;;2.50;2.30;;;23.50;99.90;;;;;;5000199;28;20438;-62
2021/07/15 10:39:02;;;;;;;4.10;2.20;;;23.30;99.90;;;;;;4999477;28;20516;-62
2021/07/15 10:41:35;;;;;;;2.60;2.40;;;23.00;99.90;;;;;;4998946;28;20917;-62
2021/07/15 10:44:07;;;;;;;2.10;2.00;;;22.80;99.90;;;;;;5000103;28;20432;-62
2021/07/15 10:46:34;;;;;;;2.87;2.67;;;22.70;99.90;;;;;;4999779;28;20482;-62
2021/07/15 10:49:04;;;;;;;3.23;3.03;;;22.70;99.90;;;;;;4999614;28;20443;-62
2021/07/15 10:51:31;;;;;;;2.53;2.33;;;22.70;99.90;;;;;;4999691;28;20469;-62
2021/07/15 10:53:58;;;;;;;2.90;2.70;;;22.50;99.90;;;;;;4999731;28;20468;-62
2021/07/15 10:56:25;;;;;;;3.80;3.50;;;22.40;99.90;;;;;;4999605;28;20900;-62
2021/07/15 10:58:54;;;;;;;2.70;2.50;;;22.40;99.90;;;;;;4999279;28;20447;-62
2021/07/15 11:01:41;;;;;;;3.00;2.80;;;22.40;99.90;;;;;;4999267;28;20893;-62
2021/07/15 11:04:13;;;;;;;3.30;3.07;;;22.40;99.90;;;;;;4990221;28;20458;-62
2021/07/15 11:06:44;;;;;;;3.77;3.47;;;22.30;99.90;;;;;;4998634;28;20508;-62
2021/07/15 11:09:12;;;;;;;2.87;2.67;;;22.00;99.90;;;;;;4998411;28;20493;-62
2021/07/15 11:11:45;;;;;;;3.00;2.80;;;21.70;99.90;;;;;;4999439;28;20494;-62
2021/07/15 11:14:38;;;;;;;3.63;3.37;;;21.60;99.90;;;;;;4998819;28;20456;-62
2021/07/15 11:17:29;;;;;;;3.03;2.73;;;21.70;99.90;;;;;;4998109;28;20469;-62
2021/07/15 11:20:07;;;;;;;3.10;2.90;;;21.80;99.90;;;;;;4999348;28;20584;-62
2021/07/15 11:22:43;;;;;;;3.40;3.17;;;22.00;99.90;;;;;;4998809;28;20452;-62
2021/07/15 11:25:19;;;;;;;2.93;2.73;;;22.30;99.90;;;;;;4998928;28;20532;-63
2021/07/15 11:27:51;;;;;;;2.73;2.53;;;22.50;99.90;;;;;;4998718;28;20464;-63
2021/07/15 11:30:41;;;;;;;3.20;2.90;;;22.70;99.90;;;;;;4998618;28;20493;-63
2021/07/15 11:33:35;;;;;;;2.33;2.10;;;22.80;99.90;;;;;;4998640;28;20465;-63
2021/07/15 11:36:08;;;;;;;3.00;2.80;;;22.90;99.90;;;;;;4998590;28;20882;-64
2021/07/15 11:38:38;;;;;;;3.20;3.00;;;22.90;99.90;;;;;;4999150;28;20453;-64
2021/07/15 11:41:06;;;;;;;2.60;2.40;;;23.00;99.90;;;;;;4998696;28;20481;-64
2021/07/15 11:43:35;;;;;;;3.70;3.40;;;23.10;99.90;;;;;;4998437;28;20795;-64
2021/07/15 11:46:15;;;;;;;4.80;4.20;;;22.80;99.90;;;;;;4998722;28;20595;-64
2021/07/15 11:49:03;;;;;;;3.47;3.27;;;22.50;99.90;;;;;;4998634;28;20901;-63
2021/07/15 11:51:37;;;;;;;3.87;3.53;;;22.50;99.90;;;;;;4998835;28;20504;-62
2021/07/15 11:54:45;;;;;;;4.33;4.03;;;22.50;99.90;;;;;;4998349;28;20465;-62
2021/07/15 11:57:27;;;;;;;4.20;3.87;;;22.50;99.90;;;;;;4998541;28;20473;-62
2021/07/15 12:00:07;;;;;;;5.60;5.20;;;22.30;99.90;;;;;;4998319;28;20820;-63
2021/07/15 12:02:39;;;;;;;5.10;4.67;;;22.10;99.90;;;;;;4997378;28;20461;-63
2021/07/15 12:05:17;;;;;;;6.33;4.30;;;22.20;99.90;;;;;;4991190;28;21029;-63
2021/07/15 12:07:48;;;;;;;5.00;4.70;;;22.30;99.90;;;;;;4998329;28;20461;-63
2021/07/15 12:10:26;;;;;;;4.60;4.30;;;22.30;99.90;;;;;;4997181;28;20465;-63
2021/07/15 12:12:54;;;;;;;4.60;4.20;;;22.00;99.90;;;;;;4997606;28;20552;-64
2021/07/15 12:15:25;;;;;;;4.70;4.40;;;21.80;99.90;;;;;;4998234;28;20714;-64
2021/07/15 12:17:54;;;;;;;4.87;4.47;;;21.50;99.90;;;;;;4998776;28;20469;-64
2021/07/15 12:20:24;;;;;;;5.30;4.90;;;21.80;99.90;;;;;;4997718;28;20465;-64
2021/07/15 12:22:55;;;;;;;5.00;4.70;;;21.70;99.90;;;;;;4997810;28;20465;-64
2021/07/15 12:25:26;;;;;;;5.33;4.43;;;21.70;99.90;;;;;;4998065;28;20497;-63
2021/07/15 12:27:56;;;;;;;7.20;5.23;;;21.60;99.90;;;;;;4998466;28;20507;-63
2021/07/15 12:30:37;;;;;;;4.63;4.23;;;21.70;99.90;;;;;;4997617;28;20510;-63
2021/07/15 12:33:05;;;;;;;5.10;4.70;;;21.90;99.90;;;;;;4998024;28;20736;-63
2021/07/15 12:35:38;;;;;;;5.10;4.60;;;21.90;99.90;;;;;;4997464;28;20465;-63
2021/07/15 12:38:26;;;;;;;5.80;4.87;;;21.80;99.90;;;;;;4998137;28;20515;-63
2021/07/15 12:41:17;;;;;;;5.00;4.60;;;21.60;99.90;;;;;;4997783;28;20528;-63
2021/07/15 12:43:50;;;;;;;4.57;4.27;;;21.50;99.90;;;;;;4998151;28;20523;-63
2021/07/15 12:46:19;;;;;;;4.77;4.47;;;21.60;99.90;;;;;;4997625;28;20551;-63
2021/07/15 12:48:48;;;;;;;5.23;4.90;;;21.70;99.90;;;;;;4997622;28;20465;-63
2021/07/15 12:51:18;;;;;;;4.93;4.60;;;22.00;99.90;;;;;;4997799;28;20920;-63
2021/07/15 12:53:48;;;;;;;4.07;3.77;;;22.30;99.90;;;;;;4998095;28;20520;-63
2021/07/15 12:56:22;;;;;;;5.37;4.87;;;22.70;99.90;;;;;;4997237;28;20518;-62
2021/07/15 12:58:59;;;;;;;5.80;4.87;;;22.70;99.90;;;;;;4997299;28;20571;-63
2021/07/15 13:01:28;;;;;;;5.40;5.00;;;22.60;99.90;;;;;;4997252;28;20527;-63
2021/07/15 13:04:09;;;;;;;5.13;4.70;;;22.50;99.90;;;;;;4989174;28;20497;-62
2021/07/15 13:06:42;;;;;;;5.60;4.33;;;22.50;99.90;;;;;;4995584;28;20485;-62
2021/07/15 13:09:23;;;;;;;5.03;4.60;;;22.50;99.90;;;;;;4997410;28;20465;-64
2021/07/15 13:14:42;;;;;;;6.30;5.70;;;22.40;99.90;;;;;;4997331;28;20452;-63
2021/07/15 13:17:11;;;;;;;4.60;4.20;;;22.10;99.90;;;;;;4997420;28;20571;-63
2021/07/15 13:19:40;;;;;;;4.47;4.17;;;22.10;99.90;;;;;;4997601;28;20875;-63
2021/07/15 13:22:11;;;;;;;4.90;4.40;;;22.50;99.90;;;;;;4996991;28;20464;-63
2021/07/15 13:24:39;;;;;;;8.63;4.50;;;23.00;99.90;;;;;;4997570;28;20490;-63
2021/07/15 13:27:14;;;;;;;6.80;4.13;;;23.30;99.90;;;;;;4997385;28;20882;-64
2021/07/15 13:29:41;;;;;;;4.50;4.20;;;23.50;99.90;;;;;;4997343;28;20542;-64
2021/07/15 13:32:14;;;;;;;4.87;4.50;;;23.60;99.90;;;;;;4996876;28;20968;-64
2021/07/15 13:34:42;;;;;;;5.80;4.40;;;23.90;99.90;;;;;;4997451;28;20469;-64
2021/07/15 13:37:11;;;;;;;6.03;5.50;;;24.30;99.90;;;;;;4997143;28;20893;-64
2021/07/15 13:39:45;;;;;;;4.70;4.30;;;24.70;99.90;;;;;;4997055;28;20460;-64
2021/07/15 13:42:14;;;;;;;5.43;5.03;;;25.40;99.90;;;;;;4999948;28;20767;-64
2021/07/15 13:44:49;;;;;;;5.07;4.67;;;25.70;99.90;;;;;;5001054;28;20469;-64
2021/07/15 13:47:26;;;;;;;5.20;4.80;;;25.70;99.90;;;;;;5000807;28;20465;-64
2021/07/15 13:49:57;;;;;;;5.47;5.10;;;25.20;99.90;;;;;;5001040;28;20450;-64
2021/07/15 13:52:31;;;;;;;6.10;5.70;;;24.90;99.90;;;;;;5000774;28;20736;-63
2021/07/15 13:55:03;;;;;;;6.40;5.90;;;24.50;99.90;;;;;;5000776;28;20473;-63
2021/07/15 13:57:37;;;;;;;7.43;6.87;;;24.70;99.90;;;;;;5000751;28;20515;-64
2021/07/15 14:00:11;;;;;;;7.37;6.77;;;24.80;99.90;;;;;;5001173;28;20886;-64
2021/07/15 14:02:38;;;;;;;6.60;6.10;;;25.00;99.90;;;;;;4998446;28;20604;-64
2021/07/15 14:05:05;;;;;;;6.70;6.20;;;25.10;99.90;;;;;;4993175;28;20532;-64
2021/07/15 14:07:35;;;;;;;6.37;5.97;;;25.40;99.90;;;;;;5000126;28;20795;-64
2021/07/15 14:10:10;;;;;;;7.37;6.87;;;25.30;99.90;;;;;;5000102;28;20457;-64
2021/07/15 14:12:39;;;;;;;9.13;7.27;;;25.90;99.90;;;;;;4999821;28;20967;-64
2021/07/15 14:15:17;;;;;;;8.60;7.80;;;26.30;99.40;;;;;;4999983;28;20478;-64
2021/07/15 14:17:58;;;;;;;7.07;6.37;;;26.60;97.00;;;;;;5000731;28;20488;-64
2021/07/15 14:20:25;;;;;;;7.37;6.87;;;26.70;97.00;;;;;;5000289;28;20556;-64
2021/07/15 14:22:53;;;;;;;7.43;6.87;;;27.30;97.20;;;;;;4999640;28;20519;-64
2021/07/15 14:25:21;;;;;;;7.93;7.13;;;27.30;96.50;;;;;;4999750;28;20560;-63
2021/07/15 14:27:48;;;;;;;8.00;7.30;;;27.00;94.80;;;;;;5000156;28;20895;-63
2021/07/15 14:30:22;;;;;;;8.03;7.40;;;26.60;94.40;;;;;;4998946;28;20551;-63
2021/07/15 14:32:49;;;;;;;8.13;7.50;;;25.90;96.60;;;;;;4998939;28;20893;-63
2021/07/15 14:35:16;;;;;;;8.13;7.53;;;25.50;97.80;;;;;;5000248;28;20461;-64
2021/07/15 15:11:24;;;;;;;6.87;6.33;;;26.50;94.00;;;;;;4493334;23;20777;-61
2021/07/15 15:48:24;;;;;;;5.80;5.30;;;25.60;96.30;;;;;;5230764;23;20504;-60
2021/07/15 15:50:51;;;;;;;6.90;6.40;;;25.30;96.00;;;;;;4998901;28;20881;-60
2021/07/15 15:53:18;;;;;;;6.10;5.57;;;25.10;97.10;;;;;;4998003;28;20464;-60
2021/07/15 15:55:45;;;;;;;5.63;5.13;;;25.20;97.50;;;;;;4998370;28;20461;-60
2021/07/15 15:58:14;;;;;;;6.53;6.13;;;25.10;97.50;;;;;;4998671;28;20461;-60
2021/07/15 16:00:42;;;;;;;6.20;5.70;;;25.10;97.90;;;;;;4998534;28;20531;-59
2021/07/15 16:03:09;;;;;;;6.10;5.60;;;25.00;97.30;;;;;;4992801;28;20480;-61
2021/07/15 16:05:41;;;;;;;5.53;5.13;;;25.00;97.50;;;;;;4994050;28;20490;-61
2021/07/15 16:08:08;;;;;;;5.93;5.53;;;25.00;97.70;;;;;;4997551;28;20757;-60
2021/07/15 16:10:40;;;;;;;5.97;5.57;;;25.30;97.30;;;;;;4988065;28;20464;-60
2021/07/15 16:13:07;;;;;;;5.83;5.33;;;25.40;97.10;;;;;;4997784;28;20512;-61
2021/07/15 16:15:39;;;;;;;5.43;5.03;;;25.40;96.10;;;;;;4997986;28;20464;-60
2021/07/15 16:18:07;;;;;;;5.70;5.30;;;25.40;96.50;;;;;;4998466;28;20582;-61
2021/07/15 16:20:35;;;;;;;5.30;5.00;;;25.50;96.50;;;;;;4997365;28;20431;-61
2021/07/15 16:23:10;;;;;;;5.70;5.30;;;25.60;96.50;;;;;;4997740;28;20469;-59
2021/07/15 16:25:37;;;;;;;6.27;5.70;;;25.70;96.10;;;;;;4997549;28;20484;-60
2021/07/15 16:28:06;;;;;;;4.90;4.60;;;25.40;95.20;;;;;;4998409;28;20469;-60
2021/07/15 16:30:34;;;;;;;5.50;5.10;;;25.30;95.80;;;;;;4997578;28;20552;-60
2021/07/15 16:33:02;;;;;;;6.00;5.43;;;25.40;97.10;;;;;;4997817;28;20472;-62
2021/07/15 16:35:33;;;;;;;5.40;5.07;;;25.20;96.50;;;;;;4997332;28;20527;-62
2021/07/15 16:38:04;;;;;;;6.73;6.13;;;25.00;97.30;;;;;;4998502;28;20464;-62
2021/07/15 16:40:36;;;;;;;7.40;6.90;;;24.70;98.30;;;;;;4997928;28;20567;-62
2021/07/15 16:43:06;;;;;;;8.90;7.60;;;24.80;99.80;;;;;;4998047;28;20469;-62
2021/07/15 16:45:33;;;;;;;9.50;8.80;;;24.30;99.90;;;;;;4997362;28;20465;-61
2021/07/15 16:48:00;;;;;;;9.23;8.53;;;24.00;99.90;;;;;;4997694;28;20461;-62
2021/07/15 16:50:27;;;;;;;10.53;9.60;;;23.60;99.90;;;;;;4997366;28;20828;-62
2021/07/15 16:52:57;;;;;;;11.87;10.67;;;23.30;99.90;;;;;;4997727;28;20469;-62
2021/07/15 16:55:24;;;;;;;10.57;9.73;;;23.10;99.90;;;;;;4997485;28;20527;-62
2021/07/15 16:57:55;;;;;;;10.90;9.90;;;22.90;99.90;;;;;;4998057;28;20894;-62
2021/07/15 17:00:24;;;;;;;11.17;10.30;;;22.70;99.90;;;;;;4997473;28;20461;-62
2021/07/15 17:02:51;;;;;;;11.80;10.77;;;22.70;99.90;;;;;;4993216;28;20487;-62
2021/07/15 18:19:41;;;;;;;50.50;46.00;;;20.00;99.90;;;;;;5450743;23;20488;-66
2021/07/15 18:56:36;;;;;;;39.87;36.07;;;20.20;99.90;;;;;;5230179;23;20547;-68
2021/07/15 18:59:08;;;;;;;39.23;35.50;;;20.10;99.90;;;;;;5000163;28;20921;-69
2021/07/15 19:01:35;;;;;;;33.47;30.53;;;20.10;99.90;;;;;;4999274;28;20465;-70
2021/07/15 19:04:04;;;;;;;34.77;31.47;;;19.90;99.90;;;;;;4990524;28;20527;-71
2021/07/15 19:06:37;;;;;;;32.13;29.10;;;19.90;99.90;;;;;;4997536;28;20493;-72
2021/07/15 19:09:10;;;;;;;34.07;30.90;;;19.80;99.90;;;;;;4999174;28;20771;-72
2021/07/15 19:11:42;;;;;;;32.87;29.67;;;19.80;99.90;;;;;;5000098;28;20439;-73
2021/07/15 19:14:09;;;;;;;33.30;30.20;;;19.90;99.90;;;;;;4999143;28;20778;-72
2021/07/15 19:16:39;;;;;;;29.83;27.23;;;19.90;99.90;;;;;;4999710;28;20467;-73
2021/07/15 19:19:09;;;;;;;31.70;28.70;;;19.80;99.90;;;;;;4999512;28;20469;-73
2021/07/15 19:21:36;;;;;;;30.13;27.33;;;19.90;99.90;;;;;;4999294;28;20549;-74
2021/07/15 19:24:11;;;;;;;30.23;27.53;;;19.80;99.90;;;;;;4999253;28;20885;-73
2021/07/15 19:26:40;;;;;;;30.53;27.60;;;19.80;99.90;;;;;;4998863;28;20498;-72
2021/07/15 19:29:11;;;;;;;31.87;28.70;;;19.70;99.90;;;;;;4998926;28;20520;-73
2021/07/15 19:31:39;;;;;;;30.70;27.97;;;19.70;99.90;;;;;;4999612;28;20809;-73
2021/07/15 19:34:11;;;;;;;30.47;27.53;;;19.50;99.90;;;;;;4999349;28;20496;-73
2021/07/15 19:36:40;;;;;;;33.63;30.17;;;19.50;99.90;;;;;;4998743;28;20496;-74
2021/07/15 19:39:12;;;;;;;37.03;33.13;;;19.50;99.90;;;;;;4998099;28;20552;-73
2021/07/15 19:41:39;;;;;;;40.47;36.37;;;19.40;99.90;;;;;;4999303;28;20473;-74
2021/07/15 19:44:10;;;;;;;46.17;41.40;;;19.40;99.90;;;;;;4998093;28;20468;-73
2021/07/15 19:46:40;;;;;;;48.23;43.57;;;19.40;99.90;;;;;;4997335;28;20447;-73
2021/07/15 19:49:17;;;;;;;51.93;46.37;;;19.40;99.90;;;;;;4997710;28;20457;-73
2021/07/15 19:51:50;;;;;;;50.07;44.73;;;19.40;99.90;;;;;;4998869;28;20493;-73
2021/07/15 19:54:17;;;;;;;45.10;40.30;;;19.40;99.90;;;;;;4998416;28;20845;-74
2021/07/15 19:56:45;;;;;;;44.33;39.53;;;19.30;99.90;;;;;;4997906;28;20580;-73
2021/07/15 19:59:19;;;;;;;43.60;39.20;;;19.20;99.90;;;;;;4998637;28;20515;-74
2021/07/15 20:01:48;;;;;;;40.03;35.93;;;19.20;99.90;;;;;;4997297;28;20439;-73
2021/07/15 20:04:25;;;;;;;39.80;35.77;;;19.20;99.90;;;;;;4990004;28;20473;-73
2021/07/15 20:07:05;;;;;;;41.40;37.37;;;19.20;99.90;;;;;;4996996;28;20461;-73
2021/07/15 20:09:32;;;;;;;41.63;37.10;;;19.10;99.90;;;;;;4997457;28;20475;-73
2021/07/15 20:12:00;;;;;;;41.50;37.20;;;19.20;99.90;;;;;;4997875;28;20443;-73
2021/07/15 20:14:29;;;;;;;43.27;38.53;;;19.10;99.90;;;;;;4997191;28;20457;-73
2021/07/15 20:16:56;;;;;;;36.73;33.07;;;19.00;99.90;;;;;;4998353;28;20493;-72
2021/07/15 20:19:23;;;;;;;36.27;32.37;;;19.00;99.90;;;;;;4997508;28;20464;-70
2021/07/15 20:21:50;;;;;;;38.87;34.53;;;19.00;99.90;;;;;;4996909;28;20500;-70
2021/07/15 20:24:17;;;;;;;41.80;35.00;;;19.00;99.90;;;;;;4996927;28;20444;-69
2021/07/15 20:26:44;;;;;;;38.43;34.17;;;19.00;99.90;;;;;;4997885;28;20747;-65
2021/07/15 20:29:14;;;;;;;35.73;31.93;;;18.90;99.90;;;;;;4997599;28;20900;-66
2021/07/15 20:31:46;;;;;;;34.97;31.17;;;18.90;99.90;;;;;;4997558;28;20449;-66
2021/07/15 20:34:14;;;;;;;29.57;25.60;;;18.80;99.90;;;;;;4997767;28;20524;-66
2021/07/15 20:36:41;;;;;;;25.73;23.30;;;18.70;99.90;;;;;;4997207;28;20525;-66
2021/07/15 20:39:09;;;;;;;27.50;24.60;;;18.70;99.90;;;;;;4997552;28;20464;-68
2021/07/15 20:41:38;;;;;;;25.27;22.77;;;18.70;99.90;;;;;;4996770;28;20911;-68
2021/07/15 20:44:08;;;;;;;25.20;22.00;;;18.60;99.90;;;;;;4995599;28;20540;-68
2021/07/15 20:46:35;;;;;;;23.47;21.27;;;18.60;99.90;;;;;;4994866;28;20436;-67
2021/07/15 20:49:04;;;;;;;23.60;21.30;;;18.50;99.90;;;;;;4995995;28;20472;-69
2021/07/15 20:51:33;;;;;;;29.60;27.00;;;18.50;99.90;;;;;;4997212;28;20439;-67
2021/07/15 20:54:00;;;;;;;31.53;28.40;;;18.50;99.90;;;;;;4997809;28;20537;-67
2021/07/15 20:56:27;;;;;;;34.10;30.40;;;18.50;99.90;;;;;;4997158;28;20849;-68
2021/07/15 20:58:54;;;;;;;37.67;33.73;;;18.50;99.90;;;;;;4997938;28;20460;-67
2021/07/15 21:01:25;;;;;;;37.67;32.70;;;18.60;99.90;;;;;;4996880;28;20469;-67
2021/07/15 21:03:52;;;;;;;33.90;30.80;;;18.60;99.90;;;;;;4990865;28;20472;-67
2021/07/15 21:06:21;;;;;;;44.73;34.40;;;18.60;99.90;;;;;;4995386;28;20453;-67
2021/07/15 21:08:48;;;;;;;37.53;33.67;;;18.60;99.90;;;;;;4997404;28;20496;-67
2021/07/15 21:11:15;;;;;;;38.83;34.60;;;18.50;99.90;;;;;;4996758;28;20469;-67
2021/07/15 21:13:43;;;;;;;39.23;35.13;;;18.60;99.90;;;;;;4997369;28;20535;-68
2021/07/15 21:16:10;;;;;;;38.53;34.30;;;18.70;99.90;;;;;;4995968;28;20468;-69
2021/07/15 21:18:37;;;;;;;39.63;35.40;;;18.70;99.90;;;;;;4996584;28;20551;-69
2021/07/15 21:21:04;;;;;;;47.33;34.87;;;18.70;99.90;;;;;;4995740;28;20791;-70
2021/07/15 21:23:38;;;;;;;40.40;33.63;;;18.60;99.90;;;;;;4996228;28;20469;-70
2021/07/15 21:26:07;;;;;;;38.70;34.67;;;18.50;99.90;;;;;;4995582;28;20895;-71
2021/07/15 21:28:42;;;;;;;41.63;34.33;;;18.60;99.90;;;;;;4997188;28;20926;-71
2021/07/15 21:31:09;;;;;;;41.33;33.30;;;18.70;99.90;;;;;;4997458;28;20438;-71
2021/07/15 21:33:36;;;;;;;40.87;34.07;;;18.70;99.90;;;;;;4997593;28;20523;-71
2021/07/15 21:36:06;;;;;;;36.50;30.63;;;18.70;99.90;;;;;;4997358;28;20886;-72
2021/07/15 21:38:34;;;;;;;36.40;32.70;;;18.60;99.90;;;;;;4996962;28;20504;-72
2021/07/15 21:41:01;;;;;;;34.90;31.20;;;18.70;99.90;;;;;;4997388;28;20543;-72
2021/07/15 21:43:31;;;;;;;38.90;32.87;;;18.60;99.90;;;;;;4996943;28;20439;-72
2021/07/15 21:45:58;;;;;;;34.43;30.70;;;18.50;99.90;;;;;;4995982;28;20469;-73
2021/07/15 21:48:26;;;;;;;44.77;34.33;;;18.40;99.90;;;;;;4996779;28;20461;-73
2021/07/15 21:50:53;;;;;;;38.27;33.60;;;18.40;99.90;;;;;;4997087;28;20468;-72
2021/07/15 21:53:22;;;;;;;40.10;33.40;;;18.40;99.90;;;;;;4996754;28;20539;-72
2021/07/15 21:55:58;;;;;;;40.40;34.50;;;18.40;99.90;;;;;;4996990;28;20444;-72
2021/07/15 21:58:25;;;;;;;41.33;33.43;;;18.40;99.90;;;;;;4996911;28;20501;-72
2021/07/15 22:00:52;;;;;;;44.27;33.60;;;18.30;99.90;;;;;;4997133;28;20469;-71
2021/07/15 22:03:21;;;;;;;41.90;32.50;;;18.20;99.90;;;;;;4999487;28;20516;-71
2021/07/15 22:05:49;;;;;;;36.10;30.40;;;18.20;99.90;;;;;;4992246;28;20483;-72
2021/07/15 22:08:16;;;;;;;40.70;31.13;;;18.10;99.90;;;;;;5000178;28;20483;-72
2021/07/15 22:10:44;;;;;;;39.93;29.63;;;18.10;99.90;;;;;;5000173;28;20446;-72
2021/07/15 22:13:13;;;;;;;39.70;29.40;;;18.10;99.90;;;;;;5000258;28;20507;-71
2021/07/15 22:15:45;;;;;;;36.57;30.63;;;18.10;99.90;;;;;;5000571;28;20461;-72
2021/07/15 22:18:13;;;;;;;35.30;26.97;;;18.10;99.90;;;;;;5000817;28;20528;-71
2021/07/15 22:20:40;;;;;;;32.73;25.00;;;18.00;99.90;;;;;;5000226;28;20472;-71
2021/07/15 22:23:13;;;;;;;28.43;25.00;;;18.00;99.90;;;;;;5000191;28;20492;-71
2021/07/15 22:25:41;;;;;;;29.93;24.87;;;18.00;99.90;;;;;;5000216;28;20473;-71
2021/07/15 22:28:09;;;;;;;28.33;23.83;;;18.00;99.90;;;;;;4998929;28;20909;-71
2021/07/15 22:30:39;;;;;;;26.63;23.77;;;17.90;99.90;;;;;;5001389;28;20461;-71
2021/07/15 22:33:08;;;;;;;31.03;24.13;;;17.90;99.90;;;;;;5012274;28;20469;-71
2021/07/15 22:35:45;;;;;;;32.00;23.40;;;17.90;99.90;;;;;;4995616;28;20473;-71
2021/07/15 22:38:16;;;;;;;27.60;23.83;;;18.00;99.90;;;;;;4999971;28;20496;-72
2021/07/15 22:40:44;;;;;;;32.97;23.90;;;17.90;99.90;;;;;;4985293;28;20517;-72
2021/07/15 22:43:14;;;;;;;26.57;23.43;;;17.90;99.90;;;;;;4980418;28;20539;-72
2021/07/15 22:45:43;;;;;;;29.67;24.13;;;17.90;99.90;;;;;;4980628;28;20470;-72
2021/07/15 22:48:10;;;;;;;27.60;24.33;;;17.90;99.90;;;;;;4980555;28;20466;-72
2021/07/15 22:50:40;;;;;;;29.77;23.57;;;17.80;99.90;;;;;;4980642;28;20789;-72
2021/07/15 22:53:11;;;;;;;28.30;23.57;;;17.90;99.90;;;;;;4980314;28;20470;-71
2021/07/15 22:55:38;;;;;;;31.30;25.27;;;17.90;99.90;;;;;;4980404;28;20546;-71
2021/07/15 22:58:06;;;;;;;31.03;22.60;;;17.90;99.90;;;;;;4980189;28;20505;-71
2021/07/15 23:00:35;;;;;;;24.70;22.20;;;17.80;99.90;;;;;;4980463;28;20466;-71
2021/07/15 23:03:04;;;;;;;26.07;23.30;;;17.80;99.90;;;;;;4980811;28;20535;-71
2021/07/15 23:05:39;;;;;;;24.70;22.00;;;17.80;99.90;;;;;;4997419;28;20472;-70
2021/07/15 23:08:08;;;;;;;25.63;23.00;;;17.80;99.90;;;;;;4999391;28;20490;-70
2021/07/15 23:10:40;;;;;;;25.57;22.97;;;17.80;99.90;;;;;;4999898;28;20559;-70
2021/07/15 23:13:13;;;;;;;23.13;20.73;;;17.80;99.90;;;;;;4999858;28;20509;-70
2021/07/15 23:15:44;;;;;;;26.47;22.10;;;17.70;99.90;;;;;;4999656;28;20473;-70
2021/07/15 23:18:13;;;;;;;32.03;22.60;;;17.80;99.90;;;;;;4999579;28;20495;-69
2021/07/15 23:20:41;;;;;;;24.10;21.60;;;17.80;99.90;;;;;;4999416;28;20443;-69
2021/07/15 23:23:09;;;;;;;29.20;21.87;;;17.70;99.90;;;;;;4999311;28;20465;-69
2021/07/15 23:25:38;;;;;;;23.90;20.60;;;17.70;99.90;;;;;;4999245;28;20820;-69
2021/07/15 23:28:08;;;;;;;27.33;22.20;;;17.80;99.90;;;;;;4998793;28;20461;-69
2021/07/15 23:30:35;;;;;;;24.33;21.73;;;17.80;99.90;;;;;;4999755;28;20440;-69
2021/07/15 23:33:06;;;;;;;27.40;21.07;;;17.80;99.90;;;;;;4998901;28;20994;-68
2021/07/15 23:35:34;;;;;;;23.87;21.43;;;17.70;99.90;;;;;;4998974;28;20893;-68
2021/07/15 23:38:01;;;;;;;24.23;21.17;;;17.80;99.90;;;;;;4998705;28;20548;-68
2021/07/15 23:40:28;;;;;;;26.70;21.23;;;17.70;99.90;;;;;;4998703;28;20493;-67
2021/07/15 23:42:58;;;;;;;23.17;20.63;;;17.70;99.90;;;;;;4998457;28;20540;-67
2021/07/15 23:45:25;;;;;;;21.97;18.80;;;17.70;99.90;;;;;;4998872;28;20472;-67
2021/07/15 23:50:43;;;;;;;23.57;21.27;;;17.70;99.90;;;;;;4994049;28;20904;-68
2021/07/15 23:53:11;;;;;;;24.30;19.80;;;17.60;99.90;;;;;;4998592;28;20512;-68
2021/07/15 23:55:38;;;;;;;20.83;18.73;;;17.60;99.90;;;;;;4999009;28;20469;-69
2021/07/15 23:58:08;;;;;;;21.17;19.17;;;17.60;99.90;;;;;;4998307;28;20504;-69
